sensor_id;sensor_type;location;lat;lon;timestamp;temperature;humidity
16321;DHT22;8269;50.990;4.494;2022-12-17T00:02:04;-4.90;99.90
16321;DHT22;8269;50.990;4.494;2022-12-17T00:04:48;-5.00;99.90
16321;DHT22;8269;50.990;4.494;2022-12-17T00:07:32;-5.00;99.90
16321;DHT22;8269;50.990;4.494;2022-12-17T00:10:16;-5.00;99.90
16321;DHT22;8269;50.990;4.494;2022-12-17T00:13:00;-5.00;99.90
16321;DHT22;8269;50.990;4.494;2022-12-17T00:15:50;-5.10;99.90
16321;DHT22;8269;50.990;4.494;2022-12-17T00:18:34;-5.20;99.90
16321;DHT22;8269;50.990;4.494;2022-12-17T00:21:18;-5.20;99.90
16321;DHT22;8269;50.990;4.494;2022-12-17T00:24:02;-5.30;99.90
16321;DHT22;8269;50.990;4.494;2022-12-17T00:26:46;-5.20;99.90
16321;DHT22;8269;50.990;4.494;2022-12-17T00:29:30;-5.30;99.90
16321;DHT22;8269;50.990;4.494;2022-12-17T00:32:14;-5.30;99.90
16321;DHT22;8269;50.990;4.494;2022-12-17T00:34:58;-5.30;99.90
16321;DHT22;8269;50.990;4.494;2022-12-17T00:37:45;-5.30;99.90
16321;DHT22;8269;50.990;4.494;2022-12-17T00:40:29;-5.30;99.90
16321;DHT22;8269;50.990;4.494;2022-12-17T00:43:13;-5.20;99.90
16321;DHT22;8269;50.990;4.494;2022-12-17T00:45:58;-5.30;99.90
16321;DHT22;8269;50.990;4.494;2022-12-17T00:48:43;-5.30;99.90
16321;DHT22;8269;50.990;4.494;2022-12-17T00:51:27;-5.30;99.90
16321;DHT22;8269;50.990;4.494;2022-12-17T00:54:11;-5.30;99.90
16321;DHT22;8269;50.990;4.494;2022-12-17T00:56:55;-5.30;99.90
16321;DHT22;8269;50.990;4.494;2022-12-17T00:59:39;-5.40;99.90
16321;DHT22;8269;50.990;4.494;2022-12-17T01:02:24;-5.30;99.90
16321;DHT22;8269;50.990;4.494;2022-12-17T01:05:08;-5.20;99.90
16321;DHT22;8269;50.990;4.494;2022-12-17T01:08:06;-5.40;99.90
16321;DHT22;8269;50.990;4.494;2022-12-17T01:10:50;-5.40;99.90
16321;DHT22;8269;50.990;4.494;2022-12-17T01:13:34;-5.40;99.90
16321;DHT22;8269;50.990;4.494;2022-12-17T01:16:18;-5.30;99.90
16321;DHT22;8269;50.990;4.494;2022-12-17T01:19:03;-5.30;99.90
16321;DHT22;8269;50.990;4.494;2022-12-17T01:21:47;-5.30;99.90
16321;DHT22;8269;50.990;4.494;2022-12-17T01:24:31;-5.40;99.90
16321;DHT22;8269;50.990;4.494;2022-12-17T01:27:15;-5.40;99.90
16321;DHT22;8269;50.990;4.494;2022-12-17T01:29:59;-5.40;99.90
16321;DHT22;8269;50.990;4.494;2022-12-17T01:32:43;-5.40;99.90
16321;DHT22;8269;50.990;4.494;2022-12-17T01:35:27;-5.40;99.90
16321;DHT22;8269;50.990;4.494;2022-12-17T01:38:13;-5.50;99.90
16321;DHT22;8269;50.990;4.494;2022-12-17T01:40:58;-5.50;99.90
16321;DHT22;8269;50.990;4.494;2022-12-17T01:43:42;-5.50;99.90
16321;DHT22;8269;50.990;4.494;2022-12-17T01:46:29;-5.50;99.90
16321;DHT22;8269;50.990;4.494;2022-12-17T01:49:17;-5.60;99.90
16321;DHT22;8269;50.990;4.494;2022-12-17T01:52:02;-5.60;99.90
16321;DHT22;8269;50.990;4.494;2022-12-17T01:54:47;-5.60;99.90
16321;DHT22;8269;50.990;4.494;2022-12-17T01:57:31;-5.60;99.90
16321;DHT22;8269;50.990;4.494;2022-12-17T02:00:17;-5.50;99.90
16321;DHT22;8269;50.990;4.494;2022-12-17T02:03:01;-5.60;99.90
16321;DHT22;8269;50.990;4.494;2022-12-17T02:06:11;-5.60;99.90
16321;DHT22;8269;50.990;4.494;2022-12-17T02:12:33;-5.60;99.90
16321;DHT22;8269;50.990;4.494;2022-12-17T02:15:27;-5.70;99.90
16321;DHT22;8269;50.990;4.494;2022-12-17T02:18:18;-5.70;99.90
16321;DHT22;8269;50.990;4.494;2022-12-17T02:21:05;-5.70;99.90
16321;DHT22;8269;50.990;4.494;2022-12-17T02:24:36;-5.70;99.90
16321;DHT22;8269;50.990;4.494;2022-12-17T02:27:23;-5.70;99.90
16321;DHT22;8269;50.990;4.494;2022-12-17T02:30:08;-5.80;99.90
16321;DHT22;8269;50.990;4.494;2022-12-17T02:32:53;-5.80;99.90
16321;DHT22;8269;50.990;4.494;2022-12-17T02:35:44;-5.80;99.90
16321;DHT22;8269;50.990;4.494;2022-12-17T02:38:31;-5.90;99.90
16321;DHT22;8269;50.990;4.494;2022-12-17T02:41:24;-5.90;99.90
16321;DHT22;8269;50.990;4.494;2022-12-17T02:44:10;-5.80;99.90
16321;DHT22;8269;50.990;4.494;2022-12-17T02:46:57;-5.80;99.90
16321;DHT22;8269;50.990;4.494;2022-12-17T02:49:43;-5.80;99.90
16321;DHT22;8269;50.990;4.494;2022-12-17T02:52:27;-5.80;99.90
16321;DHT22;8269;50.990;4.494;2022-12-17T02:55:12;-5.80;99.90
16321;DHT22;8269;50.990;4.494;2022-12-17T02:57:56;-5.80;99.90
16321;DHT22;8269;50.990;4.494;2022-12-17T03:00:40;-5.80;99.90
16321;DHT22;8269;50.990;4.494;2022-12-17T03:03:24;-5.80;99.90
16321;DHT22;8269;50.990;4.494;2022-12-17T03:06:08;-5.80;99.90
16321;DHT22;8269;50.990;4.494;2022-12-17T03:08:53;-5.90;99.90
16321;DHT22;8269;50.990;4.494;2022-12-17T03:11:37;-5.90;99.90
16321;DHT22;8269;50.990;4.494;2022-12-17T03:14:21;-5.90;99.90
16321;DHT22;8269;50.990;4.494;2022-12-17T03:17:05;-5.90;99.90
16321;DHT22;8269;50.990;4.494;2022-12-17T03:19:49;-5.90;99.90
16321;DHT22;8269;50.990;4.494;2022-12-17T03:22:33;-5.90;99.90
16321;DHT22;8269;50.990;4.494;2022-12-17T03:25:17;-5.90;99.90
16321;DHT22;8269;50.990;4.494;2022-12-17T03:28:06;-5.90;99.90
16321;DHT22;8269;50.990;4.494;2022-12-17T03:30:51;-5.90;99.90
16321;DHT22;8269;50.990;4.494;2022-12-17T03:33:35;-5.90;99.90
16321;DHT22;8269;50.990;4.494;2022-12-17T03:36:19;-5.90;99.90
16321;DHT22;8269;50.990;4.494;2022-12-17T03:39:04;-6.00;99.90
16321;DHT22;8269;50.990;4.494;2022-12-17T03:41:48;-6.00;99.90
16321;DHT22;8269;50.990;4.494;2022-12-17T03:44:32;-6.00;99.90
16321;DHT22;8269;50.990;4.494;2022-12-17T03:47:33;-6.10;99.90
16321;DHT22;8269;50.990;4.494;2022-12-17T03:50:17;-6.00;99.90
16321;DHT22;8269;50.990;4.494;2022-12-17T03:53:03;-6.00;99.90
16321;DHT22;8269;50.990;4.494;2022-12-17T03:55:47;-6.00;99.90
16321;DHT22;8269;50.990;4.494;2022-12-17T03:58:32;-6.10;99.90
16321;DHT22;8269;50.990;4.494;2022-12-17T04:01:16;-6.10;99.90
16321;DHT22;8269;50.990;4.494;2022-12-17T04:04:00;-6.10;99.90
16321;DHT22;8269;50.990;4.494;2022-12-17T04:06:44;-6.10;99.90
16321;DHT22;8269;50.990;4.494;2022-12-17T04:09:28;-6.20;99.90
16321;DHT22;8269;50.990;4.494;2022-12-17T04:12:12;-6.20;99.90
16321;DHT22;8269;50.990;4.494;2022-12-17T04:14:56;-6.20;99.90
16321;DHT22;8269;50.990;4.494;2022-12-17T04:17:40;-6.20;99.90
16321;DHT22;8269;50.990;4.494;2022-12-17T04:20:24;-6.20;99.90
16321;DHT22;8269;50.990;4.494;2022-12-17T04:23:08;-6.30;99.90
16321;DHT22;8269;50.990;4.494;2022-12-17T04:26:09;-6.30;99.90
16321;DHT22;8269;50.990;4.494;2022-12-17T04:28:54;-6.30;99.90
16321;DHT22;8269;50.990;4.494;2022-12-17T04:31:38;-6.30;99.90
16321;DHT22;8269;50.990;4.494;2022-12-17T04:34:22;-6.20;99.90
16321;DHT22;8269;50.990;4.494;2022-12-17T04:37:06;-6.20;99.90
16321;DHT22;8269;50.990;4.494;2022-12-17T04:39:50;-6.20;99.90
16321;DHT22;8269;50.990;4.494;2022-12-17T04:42:34;-6.20;99.90
16321;DHT22;8269;50.990;4.494;2022-12-17T04:45:19;-6.20;99.90
16321;DHT22;8269;50.990;4.494;2022-12-17T04:48:05;-6.20;99.90
16321;DHT22;8269;50.990;4.494;2022-12-17T04:50:50;-6.20;99.90
16321;DHT22;8269;50.990;4.494;2022-12-17T04:53:35;-6.20;99.90
16321;DHT22;8269;50.990;4.494;2022-12-17T04:56:19;-6.30;99.90
16321;DHT22;8269;50.990;4.494;2022-12-17T04:59:04;-6.20;99.90
16321;DHT22;8269;50.990;4.494;2022-12-17T05:01:49;-6.20;99.90
16321;DHT22;8269;50.990;4.494;2022-12-17T05:04:33;-6.30;99.90
16321;DHT22;8269;50.990;4.494;2022-12-17T05:07:17;-6.30;99.90
16321;DHT22;8269;50.990;4.494;2022-12-17T05:10:01;-6.40;99.90
16321;DHT22;8269;50.990;4.494;2022-12-17T05:12:45;-6.40;99.90
16321;DHT22;8269;50.990;4.494;2022-12-17T05:15:29;-6.40;99.90
16321;DHT22;8269;50.990;4.494;2022-12-17T05:18:30;-6.40;99.90
16321;DHT22;8269;50.990;4.494;2022-12-17T05:21:15;-6.40;99.90
16321;DHT22;8269;50.990;4.494;2022-12-17T05:23:59;-6.40;99.90
16321;DHT22;8269;50.990;4.494;2022-12-17T05:26:43;-6.40;99.90
16321;DHT22;8269;50.990;4.494;2022-12-17T05:29:27;-6.40;99.90
16321;DHT22;8269;50.990;4.494;2022-12-17T05:32:11;-6.40;99.90
16321;DHT22;8269;50.990;4.494;2022-12-17T05:34:55;-6.40;99.90
16321;DHT22;8269;50.990;4.494;2022-12-17T05:37:39;-6.40;99.90
16321;DHT22;8269;50.990;4.494;2022-12-17T05:40:23;-6.50;99.90
16321;DHT22;8269;50.990;4.494;2022-12-17T05:43:10;-6.50;99.90
16321;DHT22;8269;50.990;4.494;2022-12-17T05:45:58;-6.50;99.90
16321;DHT22;8269;50.990;4.494;2022-12-17T05:48:42;-6.50;99.90
16321;DHT22;8269;50.990;4.494;2022-12-17T05:51:26;-6.40;99.90
16321;DHT22;8269;50.990;4.494;2022-12-17T05:54:10;-6.40;99.90
16321;DHT22;8269;50.990;4.494;2022-12-17T05:56:55;-6.50;99.90
16321;DHT22;8269;50.990;4.494;2022-12-17T05:59:39;-6.60;99.90
16321;DHT22;8269;50.990;4.494;2022-12-17T06:02:24;-6.60;99.90
16321;DHT22;8269;50.990;4.494;2022-12-17T06:05:08;-6.60;99.90
16321;DHT22;8269;50.990;4.494;2022-12-17T06:07:52;-6.60;99.90
16321;DHT22;8269;50.990;4.494;2022-12-17T06:10:36;-6.60;99.90
16321;DHT22;8269;50.990;4.494;2022-12-17T06:13:20;-6.60;99.90
16321;DHT22;8269;50.990;4.494;2022-12-17T06:16:04;-6.60;99.90
16321;DHT22;8269;50.990;4.494;2022-12-17T06:18:48;-6.60;99.90
16321;DHT22;8269;50.990;4.494;2022-12-17T06:21:32;-6.50;99.90
16321;DHT22;8269;50.990;4.494;2022-12-17T06:24:17;-6.60;99.90
16321;DHT22;8269;50.990;4.494;2022-12-17T06:27:00;-6.60;99.90
16321;DHT22;8269;50.990;4.494;2022-12-17T06:29:45;-6.70;99.90
16321;DHT22;8269;50.990;4.494;2022-12-17T06:32:28;-6.70;99.90
16321;DHT22;8269;50.990;4.494;2022-12-17T06:35:32;-6.70;99.90
16321;DHT22;8269;50.990;4.494;2022-12-17T06:38:17;-6.70;99.90
16321;DHT22;8269;50.990;4.494;2022-12-17T06:41:01;-6.70;99.90
16321;DHT22;8269;50.990;4.494;2022-12-17T06:43:45;-6.60;99.90
16321;DHT22;8269;50.990;4.494;2022-12-17T06:46:29;-6.70;99.90
16321;DHT22;8269;50.990;4.494;2022-12-17T06:49:14;-6.70;99.90
16321;DHT22;8269;50.990;4.494;2022-12-17T06:51:58;-6.70;99.90
16321;DHT22;8269;50.990;4.494;2022-12-17T06:54:42;-6.70;99.90
16321;DHT22;8269;50.990;4.494;2022-12-17T06:57:26;-6.70;99.90
16321;DHT22;8269;50.990;4.494;2022-12-17T07:00:10;-6.70;99.90
16321;DHT22;8269;50.990;4.494;2022-12-17T07:02:55;-6.80;99.90
16321;DHT22;8269;50.990;4.494;2022-12-17T07:05:40;-6.90;99.90
16321;DHT22;8269;50.990;4.494;2022-12-17T07:08:24;-6.90;99.90
16321;DHT22;8269;50.990;4.494;2022-12-17T07:11:09;-7.00;99.90
16321;DHT22;8269;50.990;4.494;2022-12-17T07:13:54;-7.00;99.90
16321;DHT22;8269;50.990;4.494;2022-12-17T07:16:39;-6.90;99.90
16321;DHT22;8269;50.990;4.494;2022-12-17T07:19:23;-7.00;99.90
16321;DHT22;8269;50.990;4.494;2022-12-17T07:22:07;-7.00;99.90
16321;DHT22;8269;50.990;4.494;2022-12-17T07:24:51;-7.00;99.90
16321;DHT22;8269;50.990;4.494;2022-12-17T07:27:38;-7.00;99.90
16321;DHT22;8269;50.990;4.494;2022-12-17T07:30:22;-7.00;99.90
16321;DHT22;8269;50.990;4.494;2022-12-17T07:33:08;-7.00;99.90
16321;DHT22;8269;50.990;4.494;2022-12-17T07:35:54;-6.90;99.90
16321;DHT22;8269;50.990;4.494;2022-12-17T07:38:38;-6.80;99.90
16321;DHT22;8269;50.990;4.494;2022-12-17T07:41:22;-6.80;99.90
16321;DHT22;8269;50.990;4.494;2022-12-17T07:44:06;-6.70;99.90
16321;DHT22;8269;50.990;4.494;2022-12-17T07:46:50;-6.60;99.90
16321;DHT22;8269;50.990;4.494;2022-12-17T07:49:35;-6.60;99.90
16321;DHT22;8269;50.990;4.494;2022-12-17T07:52:19;-6.50;99.90
16321;DHT22;8269;50.990;4.494;2022-12-17T07:55:04;-6.50;99.90
16321;DHT22;8269;50.990;4.494;2022-12-17T07:58:00;-6.40;99.90
16321;DHT22;8269;50.990;4.494;2022-12-17T08:00:44;-6.30;99.90
16321;DHT22;8269;50.990;4.494;2022-12-17T08:03:29;-6.20;99.90
16321;DHT22;8269;50.990;4.494;2022-12-17T08:06:13;-6.20;99.90
16321;DHT22;8269;50.990;4.494;2022-12-17T08:08:57;-6.10;99.90
16321;DHT22;8269;50.990;4.494;2022-12-17T08:11:41;-6.10;99.90
16321;DHT22;8269;50.990;4.494;2022-12-17T08:14:25;-6.00;99.90
16321;DHT22;8269;50.990;4.494;2022-12-17T08:17:10;-5.90;99.90
16321;DHT22;8269;50.990;4.494;2022-12-17T08:19:54;-5.90;99.90
16321;DHT22;8269;50.990;4.494;2022-12-17T08:22:38;-5.80;99.90
16321;DHT22;8269;50.990;4.494;2022-12-17T08:25:22;-5.80;99.90
16321;DHT22;8269;50.990;4.494;2022-12-17T08:28:08;-5.70;99.90
16321;DHT22;8269;50.990;4.494;2022-12-17T08:30:52;-5.70;99.90
16321;DHT22;8269;50.990;4.494;2022-12-17T08:33:36;-5.60;99.90
16321;DHT22;8269;50.990;4.494;2022-12-17T08:36:20;-5.60;99.90
16321;DHT22;8269;50.990;4.494;2022-12-17T08:39:05;-5.60;99.90
16321;DHT22;8269;50.990;4.494;2022-12-17T08:41:49;-5.70;99.90
16321;DHT22;8269;50.990;4.494;2022-12-17T08:44:33;-5.60;99.90
16321;DHT22;8269;50.990;4.494;2022-12-17T08:47:17;-5.60;99.90
16321;DHT22;8269;50.990;4.494;2022-12-17T08:50:03;-5.60;99.90
16321;DHT22;8269;50.990;4.494;2022-12-17T08:52:47;-5.50;99.90
16321;DHT22;8269;50.990;4.494;2022-12-17T08:55:32;-5.50;99.90
16321;DHT22;8269;50.990;4.494;2022-12-17T08:58:16;-5.50;99.90
16321;DHT22;8269;50.990;4.494;2022-12-17T09:01:00;-5.50;99.90
16321;DHT22;8269;50.990;4.494;2022-12-17T09:03:46;-5.50;99.90
16321;DHT22;8269;50.990;4.494;2022-12-17T09:06:30;-5.40;99.90
16321;DHT22;8269;50.990;4.494;2022-12-17T09:09:14;-5.40;99.90
16321;DHT22;8269;50.990;4.494;2022-12-17T09:12:00;-5.30;99.90
16321;DHT22;8269;50.990;4.494;2022-12-17T09:14:44;-5.20;99.90
16321;DHT22;8269;50.990;4.494;2022-12-17T09:17:28;-5.20;99.90
16321;DHT22;8269;50.990;4.494;2022-12-17T09:20:13;-5.20;99.90
16321;DHT22;8269;50.990;4.494;2022-12-17T09:22:57;-5.20;99.90
16321;DHT22;8269;50.990;4.494;2022-12-17T09:25:42;-5.10;99.90
16321;DHT22;8269;50.990;4.494;2022-12-17T09:28:32;-5.10;99.90
16321;DHT22;8269;50.990;4.494;2022-12-17T09:31:18;-5.00;99.90
16321;DHT22;8269;50.990;4.494;2022-12-17T09:34:02;-5.00;99.90
16321;DHT22;8269;50.990;4.494;2022-12-17T09:36:46;-4.90;99.90
16321;DHT22;8269;50.990;4.494;2022-12-17T09:39:31;-4.80;99.90
16321;DHT22;8269;50.990;4.494;2022-12-17T09:42:47;-4.80;99.90
16321;DHT22;8269;50.990;4.494;2022-12-17T09:46:05;-4.80;99.90
16321;DHT22;8269;50.990;4.494;2022-12-17T09:49:13;-4.70;99.90
16321;DHT22;8269;50.990;4.494;2022-12-17T09:52:01;-4.70;99.90
16321;DHT22;8269;50.990;4.494;2022-12-17T09:54:49;-4.60;99.90
16321;DHT22;8269;50.990;4.494;2022-12-17T09:57:36;-4.60;99.90
16321;DHT22;8269;50.990;4.494;2022-12-17T10:00:25;-4.50;99.90
16321;DHT22;8269;50.990;4.494;2022-12-17T10:03:16;-4.50;99.90
16321;DHT22;8269;50.990;4.494;2022-12-17T10:06:07;-4.40;99.90
16321;DHT22;8269;50.990;4.494;2022-12-17T10:08:55;-4.30;99.90
16321;DHT22;8269;50.990;4.494;2022-12-17T10:11:41;-4.30;99.90
16321;DHT22;8269;50.990;4.494;2022-12-17T10:14:25;-4.30;99.90
16321;DHT22;8269;50.990;4.494;2022-12-17T10:17:18;-4.30;99.90
16321;DHT22;8269;50.990;4.494;2022-12-17T10:20:10;-4.20;99.90
16321;DHT22;8269;50.990;4.494;2022-12-17T10:22:57;-4.10;99.90
16321;DHT22;8269;50.990;4.494;2022-12-17T10:25:53;-4.00;99.90
16321;DHT22;8269;50.990;4.494;2022-12-17T10:28:37;-4.10;99.90
16321;DHT22;8269;50.990;4.494;2022-12-17T10:31:26;-4.10;99.90
16321;DHT22;8269;50.990;4.494;2022-12-17T10:34:17;-4.00;99.90
16321;DHT22;8269;50.990;4.494;2022-12-17T10:37:20;-4.00;99.90
16321;DHT22;8269;50.990;4.494;2022-12-17T10:40:30;-4.00;99.90
16321;DHT22;8269;50.990;4.494;2022-12-17T10:43:41;-4.00;99.90
16321;DHT22;8269;50.990;4.494;2022-12-17T10:46:28;-3.90;99.90
16321;DHT22;8269;50.990;4.494;2022-12-17T10:49:18;-3.80;99.90
16321;DHT22;8269;50.990;4.494;2022-12-17T10:52:27;-3.80;99.90
16321;DHT22;8269;50.990;4.494;2022-12-17T10:55:24;-3.80;99.90
16321;DHT22;8269;50.990;4.494;2022-12-17T10:58:27;-3.70;99.90
16321;DHT22;8269;50.990;4.494;2022-12-17T11:01:28;-3.70;99.90
16321;DHT22;8269;50.990;4.494;2022-12-17T11:07:20;-3.60;99.90
16321;DHT22;8269;50.990;4.494;2022-12-17T11:10:06;-3.60;99.90
16321;DHT22;8269;50.990;4.494;2022-12-17T11:13:01;-3.50;99.90
16321;DHT22;8269;50.990;4.494;2022-12-17T11:15:49;-3.50;99.90
16321;DHT22;8269;50.990;4.494;2022-12-17T11:19:13;-3.40;99.90
16321;DHT22;8269;50.990;4.494;2022-12-17T11:22:03;-3.40;99.90
16321;DHT22;8269;50.990;4.494;2022-12-17T11:27:46;-3.40;99.90
16321;DHT22;8269;50.990;4.494;2022-12-17T11:30:44;-3.40;99.90
16321;DHT22;8269;50.990;4.494;2022-12-17T11:33:38;-3.50;99.90
16321;DHT22;8269;50.990;4.494;2022-12-17T11:36:50;-3.60;99.90
16321;DHT22;8269;50.990;4.494;2022-12-17T11:39:46;-3.50;99.90
16321;DHT22;8269;50.990;4.494;2022-12-17T11:42:56;-3.50;99.90
16321;DHT22;8269;50.990;4.494;2022-12-17T11:45:56;-3.40;99.90
16321;DHT22;8269;50.990;4.494;2022-12-17T11:48:51;-3.40;99.90
16321;DHT22;8269;50.990;4.494;2022-12-17T11:51:50;-3.30;99.90
16321;DHT22;8269;50.990;4.494;2022-12-17T11:58:04;-3.20;99.90
16321;DHT22;8269;50.990;4.494;2022-12-17T12:01:11;-3.10;99.90
16321;DHT22;8269;50.990;4.494;2022-12-17T12:28:12;-3.20;99.90
16321;DHT22;8269;50.990;4.494;2022-12-17T12:31:32;-3.20;99.90
16321;DHT22;8269;50.990;4.494;2022-12-17T12:34:29;-3.20;99.90
16321;DHT22;8269;50.990;4.494;2022-12-17T12:37:17;-3.10;99.90
16321;DHT22;8269;50.990;4.494;2022-12-17T12:40:18;-2.90;99.90
16321;DHT22;8269;50.990;4.494;2022-12-17T12:43:18;-2.90;99.90
16321;DHT22;8269;50.990;4.494;2022-12-17T12:51:49;-2.80;99.90
16321;DHT22;8269;50.990;4.494;2022-12-17T12:54:50;-2.80;99.90
16321;DHT22;8269;50.990;4.494;2022-12-17T13:06:53;-2.80;99.90
16321;DHT22;8269;50.990;4.494;2022-12-17T13:14:28;-2.70;99.90
16321;DHT22;8269;50.990;4.494;2022-12-17T13:16:58;-2.70;99.90
16321;DHT22;8269;50.990;4.494;2022-12-17T13:19:37;-2.70;99.90
16321;DHT22;8269;50.990;4.494;2022-12-17T13:24:37;-2.70;99.90
16321;DHT22;8269;50.990;4.494;2022-12-17T13:27:03;-2.70;99.90
16321;DHT22;8269;50.990;4.494;2022-12-17T13:29:34;-2.60;99.90
16321;DHT22;8269;50.990;4.494;2022-12-17T13:32:27;-2.60;99.90
16321;DHT22;8269;50.990;4.494;2022-12-17T13:38:00;-2.60;99.90
16321;DHT22;8269;50.990;4.494;2022-12-17T13:43:00;-2.60;99.90
16321;DHT22;8269;50.990;4.494;2022-12-17T13:45:30;-2.60;99.90
16321;DHT22;8269;50.990;4.494;2022-12-17T13:47:58;-2.60;99.90
16321;DHT22;8269;50.990;4.494;2022-12-17T13:50:28;-2.60;99.90
16321;DHT22;8269;50.990;4.494;2022-12-17T13:52:54;-2.60;99.90
16321;DHT22;8269;50.990;4.494;2022-12-17T13:55:23;-2.60;99.90
16321;DHT22;8269;50.990;4.494;2022-12-17T13:57:50;-2.60;99.90
16321;DHT22;8269;50.990;4.494;2022-12-17T14:02:45;-2.60;99.90
16321;DHT22;8269;50.990;4.494;2022-12-17T14:05:37;-2.60;99.90
16321;DHT22;8269;50.990;4.494;2022-12-17T14:08:06;-2.50;99.90
16321;DHT22;8269;50.990;4.494;2022-12-17T14:10:32;-2.50;99.90
16321;DHT22;8269;50.990;4.494;2022-12-17T14:13:08;-2.50;99.90
16321;DHT22;8269;50.990;4.494;2022-12-17T14:15:48;-2.60;99.90
16321;DHT22;8269;50.990;4.494;2022-12-17T14:18:17;-2.50;99.90
16321;DHT22;8269;50.990;4.494;2022-12-17T14:20:44;-2.50;99.90
16321;DHT22;8269;50.990;4.494;2022-12-17T14:23:25;-2.40;99.90
16321;DHT22;8269;50.990;4.494;2022-12-17T14:25:52;-2.60;99.90
16321;DHT22;8269;50.990;4.494;2022-12-17T14:28:31;-2.60;99.90
16321;DHT22;8269;50.990;4.494;2022-12-17T14:33:41;-2.60;99.90
16321;DHT22;8269;50.990;4.494;2022-12-17T14:36:20;-2.70;99.90
16321;DHT22;8269;50.990;4.494;2022-12-17T14:38:57;-2.70;99.90
16321;DHT22;8269;50.990;4.494;2022-12-17T14:41:24;-2.70;99.90
16321;DHT22;8269;50.990;4.494;2022-12-17T14:44:21;-2.80;99.90
16321;DHT22;8269;50.990;4.494;2022-12-17T14:47:08;-2.80;99.90
16321;DHT22;8269;50.990;4.494;2022-12-17T14:49:36;-2.80;99.90
16321;DHT22;8269;50.990;4.494;2022-12-17T14:52:12;-2.90;99.90
16321;DHT22;8269;50.990;4.494;2022-12-17T14:54:44;-2.90;99.90
16321;DHT22;8269;50.990;4.494;2022-12-17T14:57:20;-2.90;99.90
16321;DHT22;8269;50.990;4.494;2022-12-17T14:59:51;-2.90;99.90
16321;DHT22;8269;50.990;4.494;2022-12-17T15:02:24;-2.90;99.90
16321;DHT22;8269;50.990;4.494;2022-12-17T15:04:55;-2.90;99.90
16321;DHT22;8269;50.990;4.494;2022-12-17T15:07:24;-2.90;99.90
16321;DHT22;8269;50.990;4.494;2022-12-17T15:09:53;-2.80;99.90
16321;DHT22;8269;50.990;4.494;2022-12-17T15:12:23;-3.00;99.90
16321;DHT22;8269;50.990;4.494;2022-12-17T15:14:52;-3.00;99.90
16321;DHT22;8269;50.990;4.494;2022-12-17T15:17:19;-3.00;99.90
16321;DHT22;8269;50.990;4.494;2022-12-17T15:19:57;-3.00;99.90
16321;DHT22;8269;50.990;4.494;2022-12-17T15:22:25;-3.10;99.90
16321;DHT22;8269;50.990;4.494;2022-12-17T15:24:53;-3.10;99.90
16321;DHT22;8269;50.990;4.494;2022-12-17T15:27:18;-3.10;99.90
16321;DHT22;8269;50.990;4.494;2022-12-17T15:29:44;-3.20;99.90
16321;DHT22;8269;50.990;4.494;2022-12-17T15:32:22;-3.20;99.90
16321;DHT22;8269;50.990;4.494;2022-12-17T15:34:48;-3.20;99.90
16321;DHT22;8269;50.990;4.494;2022-12-17T15:37:15;-3.20;99.90
16321;DHT22;8269;50.990;4.494;2022-12-17T15:39:41;-3.30;99.90
16321;DHT22;8269;50.990;4.494;2022-12-17T15:42:08;-3.20;99.90
16321;DHT22;8269;50.990;4.494;2022-12-17T15:44:53;-3.20;99.90
16321;DHT22;8269;50.990;4.494;2022-12-17T15:47:19;-3.30;99.90
16321;DHT22;8269;50.990;4.494;2022-12-17T15:49:44;-3.30;99.90
16321;DHT22;8269;50.990;4.494;2022-12-17T15:52:13;-3.30;99.90
16321;DHT22;8269;50.990;4.494;2022-12-17T15:54:43;-3.30;99.90
16321;DHT22;8269;50.990;4.494;2022-12-17T15:57:10;-3.30;99.90
16321;DHT22;8269;50.990;4.494;2022-12-17T15:59:37;-3.20;99.90
16321;DHT22;8269;50.990;4.494;2022-12-17T16:02:04;-3.30;99.90
16321;DHT22;8269;50.990;4.494;2022-12-17T16:04:29;-3.20;99.90
16321;DHT22;8269;50.990;4.494;2022-12-17T16:06:56;-3.30;99.90
16321;DHT22;8269;50.990;4.494;2022-12-17T16:09:24;-3.30;99.90
16321;DHT22;8269;50.990;4.494;2022-12-17T16:11:55;-3.20;99.90
16321;DHT22;8269;50.990;4.494;2022-12-17T16:14:22;-3.20;99.90
16321;DHT22;8269;50.990;4.494;2022-12-17T16:16:48;-3.30;99.90
16321;DHT22;8269;50.990;4.494;2022-12-17T16:19:14;-3.30;99.90
16321;DHT22;8269;50.990;4.494;2022-12-17T16:21:40;-3.30;99.90
16321;DHT22;8269;50.990;4.494;2022-12-17T16:24:06;-3.30;99.90
16321;DHT22;8269;50.990;4.494;2022-12-17T16:26:32;-3.30;99.90
16321;DHT22;8269;50.990;4.494;2022-12-17T16:28:59;-3.30;99.90
16321;DHT22;8269;50.990;4.494;2022-12-17T16:31:25;-3.20;99.90
16321;DHT22;8269;50.990;4.494;2022-12-17T16:33:50;-3.20;99.90
16321;DHT22;8269;50.990;4.494;2022-12-17T16:36:19;-3.20;99.90
16321;DHT22;8269;50.990;4.494;2022-12-17T16:38:50;-3.10;99.90
16321;DHT22;8269;50.990;4.494;2022-12-17T16:41:19;-3.20;99.90
16321;DHT22;8269;50.990;4.494;2022-12-17T16:43:47;-3.20;99.90
16321;DHT22;8269;50.990;4.494;2022-12-17T16:46:28;-3.20;99.90
16321;DHT22;8269;50.990;4.494;2022-12-17T16:48:58;-3.20;99.90
16321;DHT22;8269;50.990;4.494;2022-12-17T16:51:27;-3.20;99.90
16321;DHT22;8269;50.990;4.494;2022-12-17T16:53:54;-3.20;99.90
16321;DHT22;8269;50.990;4.494;2022-12-17T16:56:22;-3.20;99.90
16321;DHT22;8269;50.990;4.494;2022-12-17T16:58:48;-3.20;99.90
16321;DHT22;8269;50.990;4.494;2022-12-17T17:01:19;-3.20;99.90
16321;DHT22;8269;50.990;4.494;2022-12-17T17:03:46;-3.10;99.90
16321;DHT22;8269;50.990;4.494;2022-12-17T17:06:13;-3.20;99.90
16321;DHT22;8269;50.990;4.494;2022-12-17T17:08:39;-3.20;99.90
16321;DHT22;8269;50.990;4.494;2022-12-17T17:11:09;-3.20;99.90
16321;DHT22;8269;50.990;4.494;2022-12-17T17:13:36;-3.20;99.90
16321;DHT22;8269;50.990;4.494;2022-12-17T17:16:01;-3.20;99.90
16321;DHT22;8269;50.990;4.494;2022-12-17T17:18:29;-3.20;99.90
16321;DHT22;8269;50.990;4.494;2022-12-17T17:21:08;-3.20;99.90
16321;DHT22;8269;50.990;4.494;2022-12-17T17:23:36;-3.30;99.90
16321;DHT22;8269;50.990;4.494;2022-12-17T17:26:01;-3.40;99.90
16321;DHT22;8269;50.990;4.494;2022-12-17T17:28:27;-3.40;99.90
16321;DHT22;8269;50.990;4.494;2022-12-17T17:30:58;-3.40;99.90
16321;DHT22;8269;50.990;4.494;2022-12-17T17:33:31;-3.40;99.90
16321;DHT22;8269;50.990;4.494;2022-12-17T17:36:15;-3.40;99.90
16321;DHT22;8269;50.990;4.494;2022-12-17T17:38:41;-3.40;99.90
16321;DHT22;8269;50.990;4.494;2022-12-17T17:41:10;-3.40;99.90
16321;DHT22;8269;50.990;4.494;2022-12-17T17:43:37;-3.40;99.90
16321;DHT22;8269;50.990;4.494;2022-12-17T17:46:08;-3.40;99.90
16321;DHT22;8269;50.990;4.494;2022-12-17T17:48:35;-3.30;99.90
16321;DHT22;8269;50.990;4.494;2022-12-17T17:51:03;-3.30;99.90
16321;DHT22;8269;50.990;4.494;2022-12-17T17:53:29;-3.20;99.90
16321;DHT22;8269;50.990;4.494;2022-12-17T17:56:01;-3.20;99.90
16321;DHT22;8269;50.990;4.494;2022-12-17T17:58:27;-3.30;99.90
16321;DHT22;8269;50.990;4.494;2022-12-17T18:00:52;-3.30;99.90
16321;DHT22;8269;50.990;4.494;2022-12-17T18:03:18;-3.30;99.90
16321;DHT22;8269;50.990;4.494;2022-12-17T18:05:44;-3.30;99.90
16321;DHT22;8269;50.990;4.494;2022-12-17T18:08:10;-3.30;99.90
16321;DHT22;8269;50.990;4.494;2022-12-17T18:10:35;-3.30;99.90
16321;DHT22;8269;50.990;4.494;2022-12-17T18:13:01;-3.50;99.90
16321;DHT22;8269;50.990;4.494;2022-12-17T18:15:45;-3.50;99.90
16321;DHT22;8269;50.990;4.494;2022-12-17T18:18:11;-3.50;99.90
16321;DHT22;8269;50.990;4.494;2022-12-17T18:20:39;-3.50;99.90
16321;DHT22;8269;50.990;4.494;2022-12-17T18:23:05;-3.60;99.90
16321;DHT22;8269;50.990;4.494;2022-12-17T18:25:33;-3.50;99.90
16321;DHT22;8269;50.990;4.494;2022-12-17T18:27:58;-3.60;99.90
16321;DHT22;8269;50.990;4.494;2022-12-17T18:30:25;-3.50;99.90